createdAt,value
2019-03-29T00:02:11.170Z,42.60
2019-03-29T00:04:39.043Z,42.67
2019-03-29T00:07:08.795Z,41.47
2019-03-29T00:09:36.700Z,41.97
2019-03-29T00:12:05.032Z,41.63
2019-03-29T00:14:34.229Z,43.10
2019-03-29T00:17:02.146Z,41.17
2019-03-29T00:19:30.189Z,43.20
2019-03-29T00:21:58.106Z,42.27
2019-03-29T00:24:26.001Z,41.27
2019-03-29T00:26:53.900Z,40.57
2019-03-29T00:29:21.823Z,41.13
2019-03-29T00:31:49.721Z,41.13
2019-03-29T00:34:17.669Z,40.27
2019-03-29T00:36:45.551Z,41.43
2019-03-29T00:39:14.905Z,41.63
2019-03-29T00:41:43.011Z,40.17
2019-03-29T00:44:10.936Z,38.87
2019-03-29T00:46:38.847Z,40.63
2019-03-29T00:49:06.790Z,40.57
2019-03-29T00:51:34.692Z,41.37
2019-03-29T00:54:02.656Z,40.20
2019-03-29T00:56:30.559Z,41.13
2019-03-29T00:58:58.524Z,38.67
2019-03-29T01:01:26.463Z,39.30
2019-03-29T01:03:54.374Z,38.67
2019-03-29T01:06:22.264Z,40.17
2019-03-29T01:08:50.184Z,38.10
2019-03-29T01:11:18.075Z,40.10
2019-03-29T01:13:46.044Z,41.57
2019-03-29T01:16:13.929Z,40.53
2019-03-29T01:18:41.837Z,38.27
2019-03-29T01:21:09.788Z,39.20
2019-03-29T01:23:37.687Z,39.07
2019-03-29T01:26:05.580Z,38.00
2019-03-29T01:28:33.467Z,38.33
2019-03-29T01:31:01.322Z,38.67
2019-03-29T01:33:48.435Z,39.27
2019-03-29T01:36:16.372Z,38.30
2019-03-29T01:38:44.290Z,38.10
2019-03-29T01:41:12.214Z,37.80
2019-03-29T01:43:40.132Z,37.27
2019-03-29T01:46:08.021Z,38.37
2019-03-29T01:48:35.943Z,38.53
2019-03-29T01:51:03.842Z,36.90
2019-03-29T01:53:31.751Z,37.03
2019-03-29T01:55:59.743Z,34.17
2019-03-29T01:58:32.461Z,31.13
2019-03-29T02:01:00.369Z,30.37
2019-03-29T02:03:28.288Z,29.20
2019-03-29T02:06:15.522Z,26.80
2019-03-29T02:08:43.483Z,25.17
2019-03-29T02:11:11.369Z,24.93
2019-03-29T02:13:39.262Z,24.90
2019-03-29T02:16:07.163Z,25.87
2019-03-29T02:18:37.189Z,23.00
2019-03-29T02:21:05.223Z,24.63
2019-03-29T02:23:33.265Z,24.00
2019-03-29T02:26:01.181Z,22.50
2019-03-29T02:28:30.899Z,24.27
2019-03-29T02:30:59.703Z,22.43
2019-03-29T02:33:27.697Z,23.90
2019-03-29T02:35:55.645Z,23.20
2019-03-29T02:38:23.695Z,22.87
2019-03-29T02:40:51.960Z,22.50
2019-03-29T02:43:20.028Z,23.10
2019-03-29T02:45:47.908Z,23.80
2019-03-29T02:48:17.017Z,23.63
2019-03-29T02:50:45.330Z,22.90
2019-03-29T02:53:13.209Z,22.87
2019-03-29T02:55:41.147Z,23.33
2019-03-29T02:58:09.172Z,23.53
2019-03-29T03:00:37.281Z,24.47
2019-03-29T03:03:05.171Z,24.87
2019-03-29T03:05:33.118Z,25.20
2019-03-29T03:08:01.139Z,25.97
2019-03-29T03:10:29.069Z,25.43
2019-03-29T03:12:56.971Z,27.80
2019-03-29T03:15:24.911Z,26.63
2019-03-29T03:17:52.857Z,26.83
2019-03-29T03:20:20.760Z,27.43
2019-03-29T03:22:48.740Z,25.60
2019-03-29T03:25:16.689Z,28.37
2019-03-29T03:27:44.626Z,29.30
2019-03-29T03:30:12.810Z,26.33
2019-03-29T03:32:40.780Z,29.30
2019-03-29T03:35:10.986Z,28.43
2019-03-29T03:37:38.904Z,28.87
2019-03-29T03:40:07.630Z,28.37
2019-03-29T03:42:35.670Z,29.30
2019-03-29T03:45:04.219Z,30.07
2019-03-29T03:47:32.127Z,29.90
2019-03-29T03:50:01.233Z,29.80
2019-03-29T03:52:29.641Z,30.13
2019-03-29T03:54:57.590Z,29.73
2019-03-29T03:57:25.867Z,30.97
2019-03-29T03:59:54.345Z,30.10
2019-03-29T04:02:22.232Z,31.20
2019-03-29T04:04:50.175Z,30.47
2019-03-29T04:07:18.046Z,29.90
2019-03-29T04:09:50.150Z,29.17
2019-03-29T04:12:15.754Z,29.57
2019-03-29T04:14:43.615Z,30.77
2019-03-29T04:17:11.665Z,31.33
2019-03-29T04:19:39.681Z,30.60
2019-03-29T04:22:07.573Z,30.27
2019-03-29T04:24:35.591Z,29.33
2019-03-29T04:27:03.612Z,29.93
2019-03-29T04:29:31.490Z,28.60
2019-03-29T04:31:59.471Z,29.97
2019-03-29T04:34:27.388Z,29.33
2019-03-29T04:36:55.282Z,29.17
2019-03-29T04:39:23.199Z,28.30
2019-03-29T04:41:51.085Z,28.93
2019-03-29T04:44:18.998Z,28.13
2019-03-29T04:46:46.898Z,28.87
2019-03-29T04:49:15.269Z,27.33
2019-03-29T04:51:43.141Z,29.20
2019-03-29T04:54:11.009Z,28.70
2019-03-29T04:56:38.868Z,27.73
2019-03-29T04:59:25.969Z,28.17
2019-03-29T05:01:53.886Z,28.30
2019-03-29T05:04:34.537Z,29.27
2019-03-29T05:07:03.607Z,28.37
2019-03-29T05:09:31.506Z,29.50
2019-03-29T05:11:59.452Z,29.80
2019-03-29T05:14:27.361Z,29.20
2019-03-29T05:16:55.311Z,29.23
2019-03-29T05:19:23.173Z,28.47
2019-03-29T05:24:38.461Z,29.93
2019-03-29T05:27:06.427Z,29.97
2019-03-29T05:29:34.370Z,31.00
2019-03-29T05:32:04.042Z,32.57
2019-03-29T05:34:31.949Z,31.87
2019-03-29T05:37:01.181Z,31.97
2019-03-29T05:39:29.260Z,31.30
2019-03-29T05:41:57.150Z,31.53
2019-03-29T05:44:25.074Z,31.83
2019-03-29T05:46:54.985Z,30.67
2019-03-29T05:49:22.773Z,32.57
2019-03-29T05:51:50.684Z,32.30
2019-03-29T05:54:18.626Z,32.93
2019-03-29T05:56:46.560Z,30.77
2019-03-29T05:59:14.457Z,31.33
2019-03-29T06:01:42.480Z,29.63
2019-03-29T06:04:10.439Z,30.67
2019-03-29T06:06:38.723Z,29.57
2019-03-29T06:09:06.762Z,29.37
2019-03-29T06:11:34.653Z,29.93
2019-03-29T06:14:02.705Z,28.87
2019-03-29T06:16:38.864Z,29.90
2019-03-29T06:19:00.370Z,28.07
2019-03-29T06:21:28.280Z,28.00
2019-03-29T06:23:56.218Z,29.60
2019-03-29T06:26:24.107Z,27.93
2019-03-29T06:28:52.236Z,27.63
2019-03-29T06:31:22.439Z,29.07
2019-03-29T06:33:50.456Z,27.50
2019-03-29T06:36:19.432Z,28.43
2019-03-29T06:38:48.899Z,25.80
2019-03-29T06:41:17.223Z,26.03
2019-03-29T06:43:46.276Z,24.87
2019-03-29T06:46:14.147Z,25.70
2019-03-29T06:48:43.292Z,25.50
2019-03-29T06:51:11.187Z,23.37
2019-03-29T06:53:40.676Z,25.80
2019-03-29T06:56:08.647Z,24.13
2019-03-29T06:58:36.557Z,24.17
2019-03-29T07:01:04.598Z,23.23
2019-03-29T07:03:32.544Z,22.53
2019-03-29T07:06:00.475Z,20.63
2019-03-29T07:08:28.477Z,18.33
2019-03-29T07:10:56.524Z,18.83
2019-03-29T07:13:26.617Z,17.03
2019-03-29T07:15:54.654Z,16.60
2019-03-29T07:18:22.569Z,16.50
2019-03-29T07:20:50.504Z,16.80
2019-03-29T07:23:18.508Z,15.73
2019-03-29T07:25:46.426Z,14.47
2019-03-29T07:28:14.330Z,13.93
2019-03-29T07:30:42.260Z,13.37
2019-03-29T07:33:10.302Z,14.77
2019-03-29T07:35:38.253Z,13.53
2019-03-29T07:38:06.163Z,14.27
2019-03-29T07:40:34.350Z,13.67
2019-03-29T07:43:02.261Z,13.70
2019-03-29T07:45:30.187Z,13.63
2019-03-29T07:47:58.010Z,13.63
2019-03-29T07:50:26.223Z,14.00
2019-03-29T07:52:54.187Z,12.93
2019-03-29T07:55:22.168Z,14.03
2019-03-29T07:57:50.375Z,12.20
2019-03-29T08:00:20.392Z,12.20
2019-03-29T08:02:48.503Z,12.70
2019-03-29T08:05:17.902Z,12.20
2019-03-29T08:07:46.243Z,13.90
2019-03-29T08:10:25.880Z,12.43
2019-03-29T08:12:44.402Z,13.20
2019-03-29T08:15:12.701Z,11.93
2019-03-29T08:17:40.908Z,12.20
2019-03-29T08:20:37.632Z,11.63
2019-03-29T08:22:40.320Z,12.87
2019-03-29T08:25:08.552Z,12.77
2019-03-29T08:27:36.386Z,12.30
2019-03-29T08:30:06.616Z,12.50
2019-03-29T08:32:35.434Z,13.10
2019-03-29T08:35:04.061Z,12.10
2019-03-29T08:37:32.724Z,12.90
2019-03-29T08:40:01.159Z,12.23
2019-03-29T08:42:32.432Z,12.00
2019-03-29T08:45:01.483Z,11.47
2019-03-29T08:47:29.885Z,11.00
2019-03-29T08:49:58.057Z,11.90
2019-03-29T08:52:26.203Z,10.97
2019-03-29T08:54:54.419Z,10.10
2019-03-29T08:57:22.558Z,9.87
2019-03-29T08:59:50.700Z,9.47
2019-03-29T09:02:18.867Z,9.43
2019-03-29T09:05:01.386Z,10.20
2019-03-29T09:07:28.115Z,9.57
2019-03-29T09:09:56.422Z,10.30
2019-03-29T09:12:24.591Z,10.83
2019-03-29T09:14:52.775Z,10.20
2019-03-29T09:17:22.070Z,10.27
2019-03-29T09:19:50.267Z,10.47
2019-03-29T09:22:18.419Z,11.00
2019-03-29T09:24:46.591Z,10.17
2019-03-29T09:27:14.886Z,10.70
2019-03-29T09:29:42.773Z,10.80
2019-03-29T09:32:10.994Z,10.73
2019-03-29T09:34:39.175Z,11.03
2019-03-29T09:37:07.357Z,10.00
2019-03-29T09:39:35.700Z,10.43
2019-03-29T09:42:03.949Z,9.90
2019-03-29T09:44:32.141Z,10.33
2019-03-29T09:47:00.296Z,10.73
2019-03-29T09:49:28.464Z,10.10
2019-03-29T09:51:56.677Z,9.87
2019-03-29T09:54:24.867Z,10.43
2019-03-29T09:56:53.044Z,9.43
2019-03-29T09:59:23.155Z,10.17
2019-03-29T10:01:54.064Z,8.83
2019-03-29T10:04:21.293Z,8.83
2019-03-29T10:06:49.461Z,9.10
2019-03-29T10:09:17.673Z,8.50
2019-03-29T10:11:45.809Z,7.78
2019-03-29T10:14:15.799Z,7.83
2019-03-29T10:16:43.946Z,9.35
2019-03-29T10:19:12.264Z,8.25
2019-03-29T10:21:40.463Z,8.58
2019-03-29T10:24:08.659Z,9.23
2019-03-29T10:26:36.867Z,7.12
2019-03-29T10:29:05.240Z,6.28
2019-03-29T10:31:33.367Z,7.10
2019-03-29T10:34:01.554Z,6.00
2019-03-29T10:36:31.762Z,7.20
2019-03-29T10:38:59.810Z,7.37
2019-03-29T10:41:29.610Z,7.45
2019-03-29T10:43:57.794Z,7.03
2019-03-29T10:46:25.987Z,7.67
2019-03-29T10:48:54.212Z,6.85
2019-03-29T10:51:22.553Z,6.37
2019-03-29T10:53:50.730Z,6.62
2019-03-29T10:56:32.999Z,6.85
2019-03-29T10:58:48.905Z,6.05
2019-03-29T11:01:17.104Z,6.95
2019-03-29T11:03:45.276Z,7.03
2019-03-29T11:06:13.565Z,6.35
2019-03-29T11:08:43.537Z,6.70
2019-03-29T11:11:11.650Z,7.17
2019-03-29T11:13:41.180Z,6.75
2019-03-29T11:16:09.465Z,6.35
2019-03-29T11:18:37.422Z,6.45
2019-03-29T11:21:05.329Z,6.12
2019-03-29T11:23:33.457Z,6.15
2019-03-29T11:26:05.530Z,6.62
2019-03-29T11:28:35.463Z,6.92
2019-03-29T11:31:03.655Z,6.37
2019-03-29T11:33:43.694Z,7.40
2019-03-29T11:36:12.081Z,7.03
2019-03-29T11:38:40.244Z,6.47
2019-03-29T11:41:08.436Z,6.12
2019-03-29T11:43:36.598Z,6.72
2019-03-29T11:46:04.780Z,6.25
2019-03-29T11:48:32.927Z,6.58
2019-03-29T11:51:01.240Z,6.80
2019-03-29T11:53:29.394Z,6.33
2019-03-29T11:55:57.663Z,6.20
2019-03-29T11:58:25.904Z,5.70
2019-03-29T12:00:54.075Z,6.35
2019-03-29T12:03:22.241Z,5.17
2019-03-29T12:05:50.722Z,5.10
2019-03-29T12:08:20.706Z,4.83
2019-03-29T12:10:48.946Z,5.50
2019-03-29T12:13:17.083Z,4.97
2019-03-29T12:15:45.310Z,5.20
2019-03-29T12:18:13.589Z,5.00
2019-03-29T12:20:41.774Z,4.85
2019-03-29T12:23:09.921Z,4.67
2019-03-29T12:25:38.195Z,4.58
2019-03-29T12:28:06.427Z,4.80
2019-03-29T12:30:34.764Z,5.17
2019-03-29T12:33:03.219Z,4.47
2019-03-29T12:35:31.355Z,5.37
2019-03-29T12:37:59.177Z,6.08
2019-03-29T12:40:27.340Z,6.10
2019-03-29T12:42:55.601Z,5.47
2019-03-29T12:45:23.933Z,5.80
2019-03-29T12:47:54.096Z,5.47
2019-03-29T12:50:23.554Z,4.92
2019-03-29T12:52:51.703Z,5.70
2019-03-29T12:55:19.878Z,6.12
2019-03-29T12:57:48.202Z,4.75
2019-03-29T13:00:16.553Z,5.67
2019-03-29T13:02:44.864Z,6.35
2019-03-29T13:05:12.990Z,5.78
2019-03-29T13:07:41.252Z,4.92
2019-03-29T13:10:10.862Z,5.10
2019-03-29T13:12:38.985Z,5.40
2019-03-29T13:15:07.768Z,4.67
2019-03-29T13:17:35.986Z,5.22
2019-03-29T13:20:04.008Z,5.50
2019-03-29T13:22:34.579Z,5.30
2019-03-29T13:25:02.055Z,5.30
2019-03-29T13:27:30.312Z,6.00
2019-03-29T13:29:58.477Z,5.75
2019-03-29T13:32:26.796Z,5.55
2019-03-29T13:34:54.967Z,4.70
2019-03-29T13:37:23.141Z,4.65
2019-03-29T13:39:51.310Z,5.35
2019-03-29T13:42:20.648Z,5.65
2019-03-29T13:44:48.826Z,4.83
2019-03-29T13:47:18.197Z,5.67
2019-03-29T13:49:46.545Z,5.70
2019-03-29T13:52:14.770Z,5.20
2019-03-29T13:54:42.915Z,5.12
2019-03-29T13:57:11.099Z,5.37
2019-03-29T13:59:39.275Z,4.70
2019-03-29T14:02:08.518Z,5.35
2019-03-29T14:04:38.489Z,5.30
2019-03-29T14:07:06.675Z,5.28
2019-03-29T14:09:34.873Z,5.05
2019-03-29T14:12:03.278Z,5.97
2019-03-29T14:14:38.036Z,5.58
2019-03-29T14:17:03.853Z,5.58
2019-03-29T14:19:32.055Z,4.22
2019-03-29T14:22:02.219Z,4.75
2019-03-29T14:24:30.226Z,4.65
2019-03-29T14:26:58.130Z,5.10
2019-03-29T14:29:26.271Z,4.70
2019-03-29T14:31:54.497Z,5.15
2019-03-29T14:34:22.678Z,4.20
2019-03-29T14:36:50.887Z,4.58
2019-03-29T14:39:20.721Z,4.20
2019-03-29T14:41:50.789Z,4.65
2019-03-29T14:44:18.919Z,4.58
2019-03-29T14:46:47.201Z,3.83
2019-03-29T14:52:03.336Z,4.10
2019-03-29T14:54:31.312Z,4.08
2019-03-29T14:56:59.628Z,4.33
2019-03-29T14:59:27.883Z,4.10
2019-03-29T15:01:57.296Z,4.85
2019-03-29T15:04:25.546Z,4.55
2019-03-29T15:06:53.774Z,4.67
2019-03-29T15:09:21.953Z,4.25
2019-03-29T15:11:50.187Z,3.67
2019-03-29T15:14:18.354Z,4.10
2019-03-29T15:16:46.749Z,3.95
2019-03-29T15:19:14.964Z,4.22
2019-03-29T15:21:43.145Z,4.03
2019-03-29T15:24:11.337Z,3.62
2019-03-29T15:26:39.541Z,4.03
2019-03-29T15:29:09.392Z,4.25
2019-03-29T15:31:37.629Z,3.60
2019-03-29T15:34:05.969Z,3.30
2019-03-29T15:36:35.928Z,3.45
2019-03-29T15:39:05.414Z,3.58
2019-03-29T15:41:33.553Z,4.53
2019-03-29T15:44:01.808Z,3.80
2019-03-29T15:46:29.986Z,3.52
2019-03-29T15:48:58.219Z,4.15
2019-03-29T15:51:26.034Z,3.95
2019-03-29T15:53:54.249Z,4.35
2019-03-29T15:56:22.423Z,4.05
2019-03-29T15:58:50.779Z,3.45
2019-03-29T16:01:19.023Z,3.42
2019-03-29T16:03:47.193Z,3.50
2019-03-29T16:06:17.643Z,3.90
2019-03-29T16:08:45.817Z,3.60
2019-03-29T16:11:17.027Z,3.22
2019-03-29T16:13:44.002Z,3.05
2019-03-29T16:16:13.449Z,3.27
2019-03-29T16:18:41.602Z,3.80
2019-03-29T16:21:09.807Z,3.77
2019-03-29T16:23:37.970Z,3.95
2019-03-29T16:26:06.267Z,3.92
2019-03-29T16:28:36.121Z,4.62
2019-03-29T16:31:04.367Z,3.80
2019-03-29T16:33:32.562Z,4.22
2019-03-29T16:36:00.709Z,4.40
2019-03-29T16:38:29.003Z,3.90
2019-03-29T16:40:56.760Z,4.12
2019-03-29T16:43:25.053Z,3.90
2019-03-29T16:45:52.834Z,4.55
2019-03-29T16:48:21.208Z,3.57
2019-03-29T16:50:50.259Z,3.58
2019-03-29T16:53:18.280Z,3.83
2019-03-29T16:55:46.186Z,2.95
2019-03-29T16:58:14.046Z,2.98
2019-03-29T17:00:41.994Z,2.85
2019-03-29T17:03:10.171Z,2.95
2019-03-29T17:05:38.365Z,3.12
2019-03-29T17:08:06.529Z,3.72
2019-03-29T17:10:44.783Z,3.13
2019-03-29T17:13:13.050Z,3.13
2019-03-29T17:15:41.274Z,3.00
2019-03-29T17:18:09.470Z,2.67
2019-03-29T17:20:37.687Z,2.80
2019-03-29T17:23:06.036Z,3.17
2019-03-29T17:25:34.352Z,2.93
2019-03-29T17:28:02.222Z,2.83
2019-03-29T17:30:41.292Z,2.97
2019-03-29T17:33:09.554Z,3.73
2019-03-29T17:35:37.886Z,3.20
2019-03-29T17:38:07.547Z,2.60
2019-03-29T17:40:35.880Z,2.80
2019-03-29T17:43:04.030Z,2.50
2019-03-29T17:45:32.216Z,2.87
2019-03-29T17:48:00.390Z,2.80
2019-03-29T17:50:30.448Z,2.93
2019-03-29T17:52:58.554Z,2.40
2019-03-29T17:55:27.968Z,2.50
2019-03-29T17:57:56.110Z,2.33
2019-03-29T18:00:25.724Z,2.70
2019-03-29T18:02:54.016Z,2.50
2019-03-29T18:05:22.278Z,2.33
2019-03-29T18:07:50.325Z,2.37
2019-03-29T18:10:18.304Z,2.40
2019-03-29T18:12:46.548Z,2.73
2019-03-29T18:15:15.456Z,2.53
2019-03-29T18:17:43.651Z,2.90
2019-03-29T18:20:12.425Z,2.90
2019-03-29T18:22:42.274Z,2.97
2019-03-29T18:25:10.510Z,3.00
2019-03-29T18:27:38.717Z,3.63
2019-03-29T18:30:07.416Z,3.60
2019-03-29T18:32:35.858Z,3.50
2019-03-29T18:35:04.215Z,3.93
2019-03-29T18:37:32.611Z,3.83
2019-03-29T18:40:01.505Z,3.90
2019-03-29T18:42:29.735Z,3.70
2019-03-29T18:44:58.017Z,3.70
2019-03-29T18:47:26.277Z,3.77
2019-03-29T18:49:54.545Z,3.87
2019-03-29T18:52:22.984Z,3.53
2019-03-29T18:54:51.170Z,3.67
2019-03-29T18:57:19.442Z,3.83
2019-03-29T18:59:48.788Z,3.80
2019-03-29T19:02:17.105Z,4.57
2019-03-29T19:04:45.310Z,5.03
2019-03-29T19:07:13.230Z,4.90
2019-03-29T19:09:41.563Z,5.07
2019-03-29T19:12:09.842Z,4.93
2019-03-29T19:14:41.462Z,5.20
2019-03-29T19:17:08.236Z,5.07
2019-03-29T19:19:36.429Z,4.30
2019-03-29T19:22:04.702Z,4.30
2019-03-29T19:24:34.845Z,4.17
2019-03-29T19:27:02.933Z,4.50
2019-03-29T19:29:31.102Z,4.07
2019-03-29T19:32:01.226Z,4.70
2019-03-29T19:34:29.387Z,3.87
2019-03-29T19:36:57.631Z,5.23
2019-03-29T19:39:25.826Z,6.00
2019-03-29T19:41:54.109Z,5.17
2019-03-29T19:44:23.390Z,5.13
2019-03-29T19:46:51.656Z,5.37
2019-03-29T19:49:19.818Z,5.10
2019-03-29T19:51:48.018Z,5.07
2019-03-29T19:54:15.913Z,4.10
2019-03-29T19:56:44.082Z,3.63
2019-03-29T19:59:12.523Z,4.20
2019-03-29T20:01:40.686Z,4.20
2019-03-29T20:04:09.768Z,3.97
2019-03-29T20:06:38.103Z,4.43
2019-03-29T20:09:08.120Z,6.07
2019-03-29T20:11:36.336Z,5.70
2019-03-29T20:14:04.525Z,6.10
2019-03-29T20:16:32.722Z,5.83
2019-03-29T20:19:00.957Z,5.30
2019-03-29T20:21:29.178Z,5.27
2019-03-29T20:23:58.010Z,5.40
2019-03-29T20:26:26.190Z,5.00
2019-03-29T20:28:54.536Z,4.93
2019-03-29T20:31:22.370Z,4.80
2019-03-29T20:33:50.694Z,5.43
2019-03-29T20:36:23.116Z,4.77
2019-03-29T20:38:48.886Z,5.30
2019-03-29T20:41:17.110Z,5.73
2019-03-29T20:43:45.554Z,5.10
2019-03-29T20:46:13.758Z,5.67
2019-03-29T20:48:42.337Z,5.60
2019-03-29T20:51:11.092Z,5.43
2019-03-29T20:53:39.702Z,5.70
2019-03-29T20:56:07.561Z,5.27
2019-03-29T20:58:35.607Z,5.87
2019-03-29T21:01:03.663Z,5.73
2019-03-29T21:03:31.618Z,5.33
2019-03-29T21:05:59.515Z,6.03
2019-03-29T21:08:27.518Z,6.17
2019-03-29T21:10:56.570Z,5.97
2019-03-29T21:13:24.674Z,6.33
2019-03-29T21:15:52.628Z,5.60
2019-03-29T21:18:20.555Z,5.73
2019-03-29T21:20:48.444Z,5.87
2019-03-29T21:23:16.382Z,6.13
2019-03-29T21:25:44.286Z,6.20
2019-03-29T21:28:14.133Z,6.43
2019-03-29T21:30:42.069Z,6.60
2019-03-29T21:33:10.012Z,6.43
2019-03-29T21:35:37.978Z,6.17
2019-03-29T21:38:05.958Z,6.03
2019-03-29T21:40:34.981Z,5.93
2019-03-29T21:43:02.862Z,5.20
2019-03-29T21:45:30.787Z,6.80
2019-03-29T21:48:08.804Z,6.40
2019-03-29T21:50:28.464Z,6.03
2019-03-29T21:52:56.353Z,6.30
2019-03-29T21:55:24.272Z,5.93
2019-03-29T21:57:52.203Z,5.70
2019-03-29T22:00:20.119Z,5.50
2019-03-29T22:02:49.148Z,6.37
2019-03-29T22:05:17.107Z,5.90
2019-03-29T22:07:45.023Z,6.30
2019-03-29T22:10:13.030Z,5.90
2019-03-29T22:12:43.089Z,6.17
2019-03-29T22:15:18.266Z,5.87
2019-03-29T22:17:46.266Z,5.70
2019-03-29T22:20:14.256Z,5.37
2019-03-29T22:22:42.163Z,5.50
2019-03-29T22:25:10.446Z,5.50
2019-03-29T22:27:38.450Z,5.83
2019-03-29T22:30:08.379Z,5.47
2019-03-29T22:32:36.264Z,6.03
2019-03-29T22:35:04.948Z,6.10
2019-03-29T22:37:32.895Z,5.90
2019-03-29T22:40:00.857Z,5.67
2019-03-29T22:42:30.703Z,5.40
2019-03-29T22:44:59.669Z,5.27
2019-03-29T22:47:28.639Z,6.03
2019-03-29T22:49:56.590Z,5.80
2019-03-29T22:52:25.650Z,5.30
2019-03-29T22:54:53.562Z,6.00
2019-03-29T22:57:21.939Z,5.63
2019-03-29T22:59:50.007Z,5.47
2019-03-29T23:02:18.339Z,5.40
2019-03-29T23:04:46.214Z,5.97
2019-03-29T23:07:14.126Z,5.57
2019-03-29T23:09:42.039Z,5.93
2019-03-29T23:12:09.945Z,6.13
2019-03-29T23:14:37.878Z,5.83
2019-03-29T23:17:05.847Z,6.77
2019-03-29T23:19:33.784Z,5.93
2019-03-29T23:22:01.705Z,6.27
2019-03-29T23:24:29.621Z,5.70
2019-03-29T23:26:57.573Z,6.00
2019-03-29T23:29:25.475Z,5.70
2019-03-29T23:31:53.408Z,5.93
2019-03-29T23:34:23.216Z,5.90
2019-03-29T23:36:51.068Z,6.07
2019-03-29T23:39:19.543Z,6.03
2019-03-29T23:41:49.538Z,6.00
2019-03-29T23:44:17.429Z,6.10
2019-03-29T23:46:46.531Z,6.40
2019-03-29T23:49:20.827Z,6.77
2019-03-29T23:51:44.181Z,6.23
2019-03-29T23:54:12.028Z,6.73
2019-03-29T23:56:41.261Z,6.00
2019-03-29T23:59:09.294Z,5.93
